Time;durP1;ratioP1;P1;durP2;ratioP2;P2;SDS_P1;SDS_P2;PMS_P1;PMS_P2;Temp;Humidity;BMP_temperature;BMP_pressure;BME280_temperature;BME280_humidity;BME280_pressure;Samples;Min_cycle;Max_cycle;Signal;HPM_P1;HPM_P2
2022/12/22 03:27:51;;;;;;;;;;;23.90;38.70;;;;;;5091397;28;20010;-66
2022/12/22 03:30:16;;;;;;;;;;;23.90;38.80;;;;;;5091012;28;19958;-66
2022/12/22 03:32:42;;;;;;;;;;;23.80;39.00;;;;;;5091508;28;19936;-66
2022/12/22 03:35:08;;;;;;;;;;;23.70;39.00;;;;;;5090983;28;20305;-66
2022/12/22 03:37:33;;;;;;;;;;;23.70;39.10;;;;;;5108968;28;19969;-66
2022/12/22 03:39:59;;;;;;;;;;;23.70;39.20;;;;;;5090864;28;19920;-66
2022/12/22 03:47:55;;;;;;;;;;;23.80;39.00;;;;;;5108688;28;19920;-66
2022/12/22 03:50:21;;;;;;;;;;;23.90;39.00;;;;;;5090643;28;19934;-66
2022/12/22 03:52:46;;;;;;;;;;;23.90;38.90;;;;;;5087818;28;19927;-66
2022/12/22 03:55:12;;;;;;;;;;;23.90;38.80;;;;;;5077518;28;20273;-72
2022/12/22 03:57:37;;;;;;;;;;;24.00;38.90;;;;;;5076910;28;20364;-66
2022/12/22 04:00:03;;;;;;;;;;;23.90;38.80;;;;;;5077312;28;19981;-66
2022/12/22 04:02:28;;;;;;;;;;;23.90;38.80;;;;;;5094997;28;19931;-66
2022/12/22 04:04:54;;;;;;;;;;;23.90;38.90;;;;;;5094982;28;20434;-66
2022/12/22 04:07:20;;;;;;;;;;;23.80;39.00;;;;;;5076893;28;20019;-66
2022/12/22 04:13:02;;;;;;;;;;;23.70;39.10;;;;;;5076542;28;19920;-66
2022/12/22 04:15:16;;;;;;;;;;;23.70;39.10;;;;;;5076551;28;19920;-66
2022/12/22 04:17:41;;;;;;;;;;;23.70;39.10;;;;;;5095100;28;19920;-66
2022/12/22 04:20:07;;;;;;;;;;;23.70;39.20;;;;;;5095033;28;20375;-66
2022/12/22 04:22:33;;;;;;;;;;;23.70;39.20;;;;;;5093520;28;19924;-66
2022/12/22 04:24:58;;;;;;;;;;;23.70;39.20;;;;;;5076572;28;19920;-66
2022/12/22 04:27:24;;;;;;;;;;;23.70;39.30;;;;;;5076769;28;19920;-66
2022/12/22 04:29:49;;;;;;;;;;;23.70;39.30;;;;;;5076548;28;19920;-66
2022/12/22 04:32:15;;;;;;;;;;;23.70;40.00;;;;;;5076340;28;19920;-66
2022/12/22 04:34:40;;;;;;;;;;;23.70;39.10;;;;;;5076459;28;19920;-66
2022/12/22 04:37:06;;;;;;;;;;;23.80;39.10;;;;;;5076606;28;19921;-66
2022/12/22 04:39:31;;;;;;;;;;;23.80;39.20;;;;;;5094611;28;20264;-66
2022/12/22 04:41:57;;;;;;;;;;;23.70;39.10;;;;;;5076199;28;20436;-66
2022/12/22 04:44:22;;;;;;;;;;;23.70;39.20;;;;;;5094387;28;19920;-66
2022/12/22 04:46:48;;;;;;;;;;;23.70;39.20;;;;;;5094253;28;20391;-66
2022/12/22 04:49:13;;;;;;;;;;;23.70;39.10;;;;;;5076067;28;19923;-66
2022/12/22 04:51:39;;;;;;;;;;;23.70;39.10;;;;;;5076376;28;19927;-66
2022/12/22 04:54:04;;;;;;;;;;;23.80;39.10;;;;;;5075972;28;20454;-66
2022/12/22 04:56:30;;;;;;;;;;;23.80;39.10;;;;;;5076336;28;19920;-66
2022/12/22 04:58:55;;;;;;;;;;;23.70;39.10;;;;;;5075744;28;19920;-66
2022/12/22 05:01:21;;;;;;;;;;;23.70;39.20;;;;;;5094455;28;20019;-66
2022/12/22 05:03:47;;;;;;;;;;;23.70;39.20;;;;;;5092950;28;19931;-66
2022/12/22 05:06:13;;;;;;;;;;;23.60;39.20;;;;;;5074871;28;19927;-66
2022/12/22 05:08:38;;;;;;;;;;;23.70;39.30;;;;;;5076030;28;19926;-66
2022/12/22 05:11:04;;;;;;;;;;;23.60;39.30;;;;;;5075753;28;19950;-66
2022/12/22 05:13:30;;;;;;;;;;;23.70;39.30;;;;;;5093736;28;19920;-66
2022/12/22 05:16:01;;;;;;;;;;;23.70;39.20;;;;;;5075608;28;19920;-66
2022/12/22 05:18:27;;;;;;;;;;;23.70;39.30;;;;;;5075721;28;19927;-66
2022/12/22 05:20:52;;;;;;;;;;;23.70;39.20;;;;;;5075828;28;19920;-66
2022/12/22 05:23:18;;;;;;;;;;;23.70;39.20;;;;;;5075314;28;19968;-66
2022/12/22 05:25:43;;;;;;;;;;;23.70;39.20;;;;;;5075649;28;19998;-67
2022/12/22 05:28:09;;;;;;;;;;;23.70;39.10;;;;;;5075400;28;19971;-66
2022/12/22 05:30:34;;;;;;;;;;;23.70;39.10;;;;;;5075577;28;20024;-66
2022/12/22 05:33:00;;;;;;;;;;;23.80;39.10;;;;;;5075179;28;19920;-66
2022/12/22 05:35:25;;;;;;;;;;;23.70;39.00;;;;;;5075175;28;19981;-66
2022/12/22 05:37:51;;;;;;;;;;;23.70;39.00;;;;;;5093415;28;19920;-66
2022/12/22 05:40:16;;;;;;;;;;;23.70;39.10;;;;;;5093283;28;19924;-66
2022/12/22 05:42:42;;;;;;;;;;;23.70;39.10;;;;;;5074849;28;19931;-66
2022/12/22 05:45:16;;;;;;;;;;;23.60;39.10;;;;;;5074938;28;19950;-66
2022/12/22 05:47:42;;;;;;;;;;;23.60;39.20;;;;;;5093180;28;19927;-65
2022/12/22 05:50:08;;;;;;;;;;;23.70;39.30;;;;;;5075145;28;19927;-66
2022/12/22 05:52:34;;;;;;;;;;;23.60;39.20;;;;;;5075076;28;19932;-66
2022/12/22 05:54:59;;;;;;;;;;;23.60;39.20;;;;;;5075110;28;19928;-66
2022/12/22 05:57:25;;;;;;;;;;;23.60;39.20;;;;;;5093015;28;19921;-66
2022/12/22 05:59:50;;;;;;;;;;;23.60;39.30;;;;;;5074771;28;19920;-66
2022/12/22 06:02:16;;;;;;;;;;;23.50;39.20;;;;;;5074649;28;19930;-66
2022/12/22 06:04:41;;;;;;;;;;;23.50;39.20;;;;;;5074987;28;20014;-66
2022/12/22 06:07:07;;;;;;;;;;;23.50;39.20;;;;;;5075019;28;20383;-66
2022/12/22 06:09:32;;;;;;;;;;;23.50;39.30;;;;;;5075221;28;19920;-66
2022/12/22 06:11:58;;;;;;;;;;;23.40;39.30;;;;;;5092722;28;20317;-66
2022/12/22 06:14:23;;;;;;;;;;;23.50;40.10;;;;;;5092653;28;19924;-68
2022/12/22 06:16:49;;;;;;;;;;;23.50;39.30;;;;;;5092461;28;20375;-66
2022/12/22 06:19:14;;;;;;;;;;;23.50;39.30;;;;;;5074767;28;19926;-66
2022/12/22 06:21:40;;;;;;;;;;;23.50;39.30;;;;;;5074405;28;19924;-66
2022/12/22 06:24:05;;;;;;;;;;;23.50;39.20;;;;;;5056870;28;20006;-65
2022/12/22 06:26:31;;;;;;;;;;;23.50;39.30;;;;;;5071961;28;19924;-65
2022/12/22 06:28:56;;;;;;;;;;;23.40;39.60;;;;;;5072037;28;19924;-64
2022/12/22 06:31:22;;;;;;;;;;;23.30;40.10;;;;;;5091233;28;19927;-64
2022/12/22 06:33:48;;;;;;;;;;;23.10;40.70;;;;;;5090760;28;20144;-64
2022/12/22 06:36:14;;;;;;;;;;;23.00;41.00;;;;;;5071290;28;20065;-64
2022/12/22 06:38:39;;;;;;;;;;;23.00;41.40;;;;;;5090863;28;19955;-64
2022/12/22 06:41:05;;;;;;;;;;;23.10;41.30;;;;;;5088824;28;19925;-64
2022/12/22 06:43:30;;;;;;;;;;;23.20;41.30;;;;;;5070369;28;19989;-64
2022/12/22 06:45:56;;;;;;;;;;;23.40;41.10;;;;;;5072707;28;20019;-64
2022/12/22 06:48:21;;;;;;;;;;;23.60;40.80;;;;;;5090914;28;19959;-64
2022/12/22 06:50:47;;;;;;;;;;;23.70;40.70;;;;;;5070588;28;20509;-63
2022/12/22 06:53:12;;;;;;;;;;;23.80;40.60;;;;;;5088724;28;19927;-63
2022/12/22 06:55:38;;;;;;;;;;;24.00;40.30;;;;;;5080177;28;19920;-66
2022/12/22 06:58:04;;;;;;;;;;;24.00;41.00;;;;;;5089885;28;19963;-67
2022/12/22 07:00:30;;;;;;;;;;;24.20;40.00;;;;;;5071264;28;19920;-66
2022/12/22 07:02:55;;;;;;;;;;;24.40;39.70;;;;;;5070970;28;19924;-66
2022/12/22 07:05:22;;;;;;;;;;;24.40;39.50;;;;;;5088775;28;19920;-66
2022/12/22 07:07:48;;;;;;;;;;;24.40;39.50;;;;;;5067798;28;20009;-66
2022/12/22 07:10:14;;;;;;;;;;;24.30;39.60;;;;;;5070107;28;20018;-66
2022/12/22 07:12:40;;;;;;;;;;;24.10;39.70;;;;;;5068425;28;19981;-66
2022/12/22 07:15:06;;;;;;;;;;;24.10;40.10;;;;;;5084925;28;19924;-66
2022/12/22 07:17:31;;;;;;;;;;;24.30;40.00;;;;;;5067358;28;19927;-66
2022/12/22 07:19:57;;;;;;;;;;;24.50;39.70;;;;;;5067740;28;19924;-65
2022/12/22 07:22:22;;;;;;;;;;;24.60;39.50;;;;;;5054471;28;19928;-67
2022/12/22 07:24:49;;;;;;;;;;;24.70;39.40;;;;;;5069724;28;19932;-66
2022/12/22 07:27:14;;;;;;;;;;;24.70;39.30;;;;;;5051879;28;19982;-66
2022/12/22 07:29:40;;;;;;;;;;;24.60;40.00;;;;;;5066897;28;20009;-68
2022/12/22 07:32:06;;;;;;;;;;;24.50;39.30;;;;;;5069433;28;19920;-66
2022/12/22 07:34:32;;;;;;;;;;;24.20;39.40;;;;;;5050722;28;19931;-66
2022/12/22 07:36:57;;;;;;;;;;;23.70;40.10;;;;;;5070328;28;19924;-66
2022/12/22 07:39:23;;;;;;;;;;;23.40;40.90;;;;;;5052306;28;20466;-66
2022/12/22 07:44:34;;;;;;;;;;;22.80;42.20;;;;;;5056299;28;19928;-69
2022/12/22 07:46:59;;;;;;;;;;;22.60;42.90;;;;;;5074786;28;20296;-65
2022/12/22 07:52:10;;;;;;;;;;;22.30;42.90;;;;;;5054993;28;19928;-65
2022/12/22 07:54:36;;;;;;;;;;;22.20;43.10;;;;;;5054675;28;19933;-66
2022/12/22 07:57:01;;;;;;;;;;;22.40;43.40;;;;;;5055537;28;19932;-66
2022/12/22 07:59:27;;;;;;;;;;;22.70;43.30;;;;;;5055742;28;19985;-70
2022/12/22 08:01:52;;;;;;;;;;;23.10;42.20;;;;;;5055111;28;19928;-66
2022/12/22 08:04:18;;;;;;;;;;;23.50;41.70;;;;;;5053482;28;19920;-66
2022/12/22 08:06:44;;;;;;;;;;;24.00;41.10;;;;;;5071655;28;19932;-65
2022/12/22 08:09:12;;;;;;;;;;;24.30;40.40;;;;;;5071657;28;19970;-66
2022/12/22 08:11:37;;;;;;;;;;;24.70;39.70;;;;;;5053424;28;19934;-66
2022/12/22 08:14:03;;;;;;;;;;;24.90;39.30;;;;;;5056296;28;20295;-66
2022/12/22 08:16:29;;;;;;;;;;;25.00;38.90;;;;;;5054529;28;20395;-65
2022/12/22 08:18:54;;;;;;;;;;;24.90;38.90;;;;;;5058960;28;20378;-66
2022/12/22 08:21:20;;;;;;;;;;;24.50;39.20;;;;;;5054722;28;19920;-65
2022/12/22 08:23:45;;;;;;;;;;;24.40;39.60;;;;;;5072835;28;19924;-64
2022/12/22 08:26:31;;;;;;;;;;;24.20;39.80;;;;;;5070814;28;19925;-66
2022/12/22 08:29:16;;;;;;;;;;;24.10;40.10;;;;;;5072383;28;19924;-66
2022/12/22 08:31:42;;;;;;;;;;;23.90;40.40;;;;;;5070195;28;20380;-64
2022/12/22 08:34:09;;;;;;;;;;;23.80;40.60;;;;;;5074509;28;19971;-65
2022/12/22 08:36:36;;;;;;;;;;;23.60;41.10;;;;;;5073536;28;20445;-66
2022/12/22 08:39:03;;;;;;;;;;;23.40;41.40;;;;;;5060454;28;19921;-65
2022/12/22 08:42:00;;;;;;;;;;;23.20;41.80;;;;;;5074017;28;19928;-66
2022/12/22 08:44:16;;;;;;;;;;;22.90;42.00;;;;;;5072968;28;19932;-65
2022/12/22 08:46:41;;;;;;;;;;;22.70;42.70;;;;;;5069253;28;19932;-64
2022/12/22 08:49:07;;;;;;;;;;;22.60;43.20;;;;;;5070533;28;20038;-65
2022/12/22 08:51:32;;;;;;;;;;;22.50;43.50;;;;;;5056470;28;20305;-65
2022/12/22 08:53:58;;;;;;;;;;;22.50;43.60;;;;;;5057987;28;19982;-66
2022/12/22 08:56:23;;;;;;;;;;;22.60;43.80;;;;;;5052680;28;20418;-65
2022/12/22 08:58:49;;;;;;;;;;;22.90;43.60;;;;;;5069424;28;20441;-66
2022/12/22 09:01:16;;;;;;;;;;;23.10;43.50;;;;;;5069731;28;19920;-66
2022/12/22 09:03:42;;;;;;;;;;;23.40;42.90;;;;;;5070464;28;19939;-66
2022/12/22 09:06:07;;;;;;;;;;;24.00;42.00;;;;;;5073677;28;19928;-65
2022/12/22 09:08:33;;;;;;;;;;;24.70;41.10;;;;;;5059889;28;20269;-65
2022/12/22 09:11:01;;;;;;;;;;;25.20;39.90;;;;;;5074094;28;19920;-67
2022/12/22 09:13:27;;;;;;;;;;;25.80;38.90;;;;;;5068764;28;19924;-65
2022/12/22 09:15:52;;;;;;;;;;;25.90;38.70;;;;;;5068781;28;19947;-66
2022/12/22 09:18:18;;;;;;;;;;;26.10;38.40;;;;;;5075044;28;20283;-66
2022/12/22 09:20:43;;;;;;;;;;;26.20;38.30;;;;;;5076330;28;20407;-65
2022/12/22 09:23:09;;;;;;;;;;;26.30;38.10;;;;;;5072799;28;19920;-66
2022/12/22 09:25:35;;;;;;;;;;;26.10;38.20;;;;;;5072297;28;19928;-67
2022/12/22 09:28:00;;;;;;;;;;;25.90;38.40;;;;;;5053195;28;19925;-66
2022/12/22 09:30:26;;;;;;;;;;;25.80;38.60;;;;;;5071670;28;19931;-66
2022/12/22 09:32:53;;;;;;;;;;;25.40;38.50;;;;;;5068701;28;19919;-66
2022/12/22 09:35:18;;;;;;;;;;;24.90;39.00;;;;;;5069800;28;19928;-66
2022/12/22 09:37:44;;;;;;;;;;;24.40;39.80;;;;;;5060088;28;19973;-66
2022/12/22 09:40:10;;;;;;;;;;;23.90;40.50;;;;;;5073704;28;19932;-66
2022/12/22 09:42:36;;;;;;;;;;;23.50;41.20;;;;;;5072734;28;19948;-66
2022/12/22 09:45:02;;;;;;;;;;;23.10;41.70;;;;;;5072081;28;19925;-66
2022/12/22 09:47:34;;;;;;;;;;;22.80;42.20;;;;;;5051094;28;19950;-65
2022/12/22 09:50:01;;;;;;;;;;;22.50;43.10;;;;;;5060033;28;19971;-68
2022/12/22 09:55:33;;;;;;;;;;;22.10;44.10;;;;;;5073905;27;20303;-66
2022/12/22 09:57:59;;;;;;;;;;;22.10;44.70;;;;;;5087192;28;20046;-66
2022/12/22 10:00:26;;;;;;;;;;;21.90;44.60;;;;;;5110017;28;20038;-66
2022/12/22 10:05:38;;;;;;;;;;;21.80;44.90;;;;;;5075582;27;20414;-67
2022/12/22 10:08:09;;;;;;;;;;;21.80;45.00;;;;;;5072663;28;19929;-67
2022/12/22 10:10:34;;;;;;;;;;;21.70;45.20;;;;;;5072829;28;19928;-67
2022/12/22 10:13:01;;;;;;;;;;;21.60;45.50;;;;;;5071934;28;20277;-68
2022/12/22 10:15:35;;;;;;;;;;;21.60;45.70;;;;;;5075189;28;19928;-67
2022/12/22 10:18:10;;;;;;;;;;;21.70;46.00;;;;;;5074123;28;19925;-68
2022/12/22 10:20:38;;;;;;;;;;;21.90;45.70;;;;;;5073984;28;19978;-68
2022/12/22 10:23:13;;;;;;;;;;;22.00;45.40;;;;;;5071854;28;19924;-68
2022/12/22 10:25:40;;;;;;;;;;;22.10;45.20;;;;;;5070834;28;19993;-66
2022/12/22 10:28:08;;;;;;;;;;;22.20;45.00;;;;;;5068354;28;19930;-67
2022/12/22 10:30:35;;;;;;;;;;;22.40;44.90;;;;;;5066405;28;20002;-68
2022/12/22 10:35:48;;;;;;;;;;;22.70;44.20;;;;;;5083752;27;19924;-67
2022/12/22 10:38:18;;;;;;;;;;;22.80;44.10;;;;;;5052307;28;19935;-67
2022/12/22 10:40:44;;;;;;;;;;;22.80;43.90;;;;;;5070525;28;19937;-68
2022/12/22 10:43:17;;;;;;;;;;;22.90;43.80;;;;;;5052123;28;19981;-69
2022/12/22 10:45:46;;;;;;;;;;;23.00;44.50;;;;;;5054246;28;20714;-68
2022/12/22 10:48:12;;;;;;;;;;;22.90;43.60;;;;;;5052709;28;20045;-67
2022/12/22 10:50:43;;;;;;;;;;;22.90;43.90;;;;;;5053612;28;19928;-70
2022/12/22 10:53:09;;;;;;;;;;;22.90;43.80;;;;;;5052335;28;20894;-68
2022/12/22 10:55:37;;;;;;;;;;;22.80;43.70;;;;;;5053556;28;20019;-70
2022/12/22 11:01:05;;;;;;;;;;;22.80;43.90;;;;;;5076742;27;19920;-69
2022/12/22 11:03:30;;;;;;;;;;;22.70;43.80;;;;;;5057021;28;20412;-70
2022/12/22 11:05:57;;;;;;;;;;;22.50;44.10;;;;;;5085735;28;19944;-69
2022/12/22 11:08:23;;;;;;;;;;;22.40;44.30;;;;;;5061047;28;19956;-68
2022/12/22 11:24:22;;;;;;;;;;;22.30;45.10;;;;;;5059456;28;19950;-67
2022/12/22 11:27:07;;;;;;;;;;;22.40;44.90;;;;;;5050333;28;19931;-67
2022/12/22 11:29:43;;;;;;;;;;;22.40;44.80;;;;;;5052204;28;19979;-67
2022/12/22 11:32:28;;;;;;;;;;;22.30;44.90;;;;;;5070966;28;19928;-67
2022/12/22 11:35:03;;;;;;;;;;;22.30;44.90;;;;;;5064019;28;19982;-68
2022/12/22 11:37:35;;;;;;;;;;;22.30;44.90;;;;;;5053176;28;19925;-67
2022/12/22 11:40:09;;;;;;;;;;;22.20;44.90;;;;;;5067576;28;19925;-67
2022/12/22 11:48:05;;;;;;;;;;;22.20;45.00;;;;;;5085801;27;19945;-67
2022/12/22 11:50:37;;;;;;;;;;;22.20;45.10;;;;;;5069417;28;20277;-67
2022/12/22 11:55:58;;;;;;;;;;;22.10;45.20;;;;;;5054254;28;20423;-65
2022/12/22 11:58:36;;;;;;;;;;;22.00;45.40;;;;;;5049774;28;19925;-66
2022/12/22 12:01:10;;;;;;;;;;;22.10;45.60;;;;;;5036264;28;20404;-66
2022/12/22 12:06:42;;;;;;;;;;;22.10;45.70;;;;;;5086985;27;1861417;-67
2022/12/22 12:09:23;;;;;;;;;;;22.10;45.60;;;;;;5135947;27;20275;-67
2022/12/22 12:14:41;;;;;;;;;;;22.10;45.70;;;;;;5057883;27;19939;-66
2022/12/22 12:17:16;;;;;;;;;;;22.30;45.60;;;;;;5034254;28;19925;-67
2022/12/22 12:20:02;;;;;;;;;;;22.30;45.60;;;;;;5048077;28;19929;-67
2022/12/22 12:25:17;;;;;;;;;;;22.30;45.60;;;;;;5072315;27;19924;-66
2022/12/22 12:27:48;;;;;;;;;;;22.20;45.50;;;;;;5067656;28;19943;-67
2022/12/22 12:30:15;;;;;;;;;;;22.30;45.80;;;;;;5058562;28;19928;-66
2022/12/22 12:33:00;;;;;;;;;;;22.20;46.00;;;;;;5069211;28;20054;-65
2022/12/22 12:35:46;;;;;;;;;;;22.20;45.90;;;;;;5052569;28;19924;-65
2022/12/22 12:38:15;;;;;;;;;;;22.20;46.10;;;;;;5073523;28;19927;-67
2022/12/22 12:40:49;;;;;;;;;;;22.30;46.10;;;;;;5054919;28;20137;-66
2022/12/22 12:43:15;;;;;;;;;;;22.30;46.10;;;;;;5056676;28;19928;-65
2022/12/22 12:45:42;;;;;;;;;;;22.40;46.10;;;;;;5069548;28;20327;-66
2022/12/22 12:51:23;;;;;;;;;;;22.40;46.20;;;;;;5047495;28;19943;-66
2022/12/22 12:54:08;;;;;;;;;;;22.40;46.10;;;;;;5053750;28;20347;-66
2022/12/22 12:56:54;;;;;;;;;;;22.40;46.10;;;;;;5053897;28;19988;-66
2022/12/22 12:59:39;;;;;;;;;;;22.40;46.30;;;;;;5045689;28;20414;-66
2022/12/22 13:02:25;;;;;;;;;;;22.60;46.20;;;;;;5048748;28;19924;-65
2022/12/22 13:05:10;;;;;;;;;;;22.60;46.00;;;;;;5055371;28;19932;-66
2022/12/22 13:07:56;;;;;;;;;;;22.60;45.70;;;;;;5048852;28;19925;-66
2022/12/22 13:10:23;;;;;;;;;;;22.50;45.70;;;;;;5050979;28;19986;-67
2022/12/22 13:15:37;;;;;;;;;;;22.10;46.20;;;;;;5085733;27;19935;-66
2022/12/22 13:18:08;;;;;;;;;;;22.10;46.70;;;;;;5072429;28;20402;-66
2022/12/22 13:20:35;;;;;;;;;;;22.00;46.60;;;;;;5076647;28;19924;-66
2022/12/22 13:23:02;;;;;;;;;;;22.20;46.80;;;;;;5076350;28;20081;-69
2022/12/22 13:25:38;;;;;;;;;;;22.30;46.60;;;;;;5071743;28;20388;-66
2022/12/22 13:28:04;;;;;;;;;;;22.40;46.30;;;;;;5064616;28;19933;-65
2022/12/22 13:30:30;;;;;;;;;;;22.30;46.10;;;;;;5072934;28;19924;-67
2022/12/22 13:32:56;;;;;;;;;;;22.20;45.90;;;;;;5109044;27;19925;-66
2022/12/22 13:35:29;;;;;;;;;;;22.10;45.90;;;;;;5072879;28;19932;-65
2022/12/22 13:37:56;;;;;;;;;;;22.00;45.80;;;;;;5076678;28;19920;-69
2022/12/22 13:40:23;;;;;;;;;;;22.10;46.10;;;;;;5072147;28;19978;-70
2022/12/22 13:48:11;;;;;;;;;;;22.30;45.90;;;;;;5095775;27;19920;-68
2022/12/22 13:50:40;;;;;;;;;;;22.30;45.80;;;;;;5065365;28;19968;-69
2022/12/22 13:53:07;;;;;;;;;;;22.20;45.80;;;;;;5089665;28;20430;-69
2022/12/22 13:55:35;;;;;;;;;;;22.10;45.90;;;;;;5086503;28;19973;-68
2022/12/22 13:58:05;;;;;;;;;;;22.00;46.10;;;;;;5090893;28;20014;-69
2022/12/22 14:00:30;;;;;;;;;;;22.00;46.40;;;;;;5083851;28;19975;-69
2022/12/22 14:02:56;;;;;;;;;;;22.00;47.20;;;;;;5087742;28;19967;-71
2022/12/22 14:05:22;;;;;;;;;;;22.00;46.50;;;;;;5087133;28;19921;-74
2022/12/22 14:08:04;;;;;;;;;;;22.20;46.40;;;;;;5090059;28;20304;-71
2022/12/22 14:10:32;;;;;;;;;;;22.30;46.20;;;;;;5086821;28;19979;-72
2022/12/22 14:12:58;;;;;;;;;;;22.30;45.90;;;;;;5109577;28;19923;-71
2022/12/22 14:15:24;;;;;;;;;;;22.30;46.40;;;;;;5082683;28;20094;-68
2022/12/22 14:17:50;;;;;;;;;;;22.40;45.20;;;;;;5099653;28;20030;-72
2022/12/22 14:20:25;;;;;;;;;;;22.40;45.10;;;;;;5099893;28;19957;-69
2022/12/22 14:22:54;;;;;;;;;;;22.30;44.70;;;;;;5100946;28;20030;-68
2022/12/22 14:25:22;;;;;;;;;;;22.30;44.60;;;;;;5083464;28;19993;-69
2022/12/22 14:27:49;;;;;;;;;;;22.20;44.40;;;;;;5102014;28;19920;-70
2022/12/22 14:30:16;;;;;;;;;;;22.30;44.40;;;;;;5105508;28;19924;-69
2022/12/22 14:32:43;;;;;;;;;;;22.40;44.30;;;;;;5104156;28;20003;-69
2022/12/22 14:35:26;;;;;;;;;;;22.60;44.10;;;;;;5102996;28;19920;-69
2022/12/22 14:43:21;;;;;;;;;;;22.90;43.30;;;;;;5085810;28;19934;-67
2022/12/22 14:45:48;;;;;;;;;;;22.90;43.10;;;;;;5101311;28;19920;-67
2022/12/22 14:48:20;;;;;;;;;;;22.90;43.00;;;;;;5084687;28;19951;-67
2022/12/22 14:50:47;;;;;;;;;;;22.90;43.00;;;;;;5083411;28;19920;-67
2022/12/22 14:53:13;;;;;;;;;;;22.90;43.00;;;;;;5084989;28;19924;-68
2022/12/22 14:55:40;;;;;;;;;;;22.80;43.00;;;;;;5085107;28;19920;-67
2022/12/22 15:01:09;;;;;;;;;;;22.70;43.20;;;;;;5085767;28;19919;-67
2022/12/22 15:03:35;;;;;;;;;;;22.60;43.20;;;;;;5084954;28;19924;-68
2022/12/22 15:06:21;;;;;;;;;;;22.50;43.40;;;;;;5084241;28;19924;-67
2022/12/22 15:08:47;;;;;;;;;;;22.50;43.50;;;;;;5085420;28;20209;-67
2022/12/22 15:11:15;;;;;;;;;;;22.40;43.70;;;;;;5084808;28;20003;-67
2022/12/22 15:13:42;;;;;;;;;;;22.30;43.70;;;;;;5081863;28;20381;-67
2022/12/22 15:16:11;;;;;;;;;;;22.30;43.80;;;;;;5082934;28;20007;-67
2022/12/22 15:18:37;;;;;;;;;;;22.20;43.80;;;;;;5084684;28;19950;-67
2022/12/22 15:21:03;;;;;;;;;;;22.20;44.60;;;;;;5078039;28;19920;-67
2022/12/22 15:23:28;;;;;;;;;;;22.20;44.00;;;;;;5080947;28;19921;-67
2022/12/22 15:25:54;;;;;;;;;;;22.10;44.00;;;;;;5084401;28;19922;-67
2022/12/22 15:28:19;;;;;;;;;;;22.10;44.00;;;;;;5084826;28;19927;-67
2022/12/22 15:30:45;;;;;;;;;;;22.10;44.10;;;;;;5079438;28;20356;-67
2022/12/22 15:33:11;;;;;;;;;;;22.10;44.10;;;;;;5081701;28;19924;-67
2022/12/22 15:35:37;;;;;;;;;;;22.00;44.10;;;;;;5081264;28;20372;-67
2022/12/22 15:38:08;;;;;;;;;;;21.90;44.10;;;;;;5078538;28;19920;-67
2022/12/22 15:40:34;;;;;;;;;;;21.90;45.00;;;;;;5082778;28;20377;-67
2022/12/22 15:42:59;;;;;;;;;;;21.80;44.40;;;;;;5081776;28;20015;-67
2022/12/22 15:45:25;;;;;;;;;;;21.70;44.60;;;;;;5080601;28;20451;-67
2022/12/22 15:47:52;;;;;;;;;;;21.60;44.70;;;;;;5082896;28;19924;-67
2022/12/22 15:50:20;;;;;;;;;;;21.40;44.90;;;;;;5079001;28;19920;-67
2022/12/22 15:52:49;;;;;;;;;;;21.40;45.00;;;;;;5084616;28;19924;-67
2022/12/22 15:55:14;;;;;;;;;;;21.30;45.20;;;;;;5086306;28;19921;-67
2022/12/22 15:57:41;;;;;;;;;;;21.20;45.40;;;;;;5085435;28;19927;-67
2022/12/22 16:00:08;;;;;;;;;;;21.10;45.60;;;;;;5080132;28;20012;-67
2022/12/22 16:02:34;;;;;;;;;;;21.00;45.70;;;;;;5082612;28;20326;-67
2022/12/22 16:04:59;;;;;;;;;;;20.90;45.80;;;;;;5084932;28;19920;-67
2022/12/22 16:07:25;;;;;;;;;;;20.90;45.90;;;;;;5079062;28;19928;-67
2022/12/22 16:09:51;;;;;;;;;;;20.90;46.00;;;;;;5082473;28;19931;-67
2022/12/22 16:12:17;;;;;;;;;;;20.90;46.00;;;;;;5071253;28;19924;-67
2022/12/22 16:14:45;;;;;;;;;;;20.90;46.10;;;;;;5071932;28;19920;-67
2022/12/22 16:17:19;;;;;;;;;;;20.90;46.00;;;;;;5070120;28;19931;-67
2022/12/22 16:19:44;;;;;;;;;;;20.90;46.00;;;;;;5068125;28;19937;-67
2022/12/22 16:22:11;;;;;;;;;;;20.90;46.00;;;;;;5070154;28;20338;-72
2022/12/22 16:24:37;;;;;;;;;;;20.90;45.90;;;;;;5068954;28;20014;-67
2022/12/22 16:27:03;;;;;;;;;;;20.80;45.80;;;;;;5071189;28;19920;-67
2022/12/22 16:29:29;;;;;;;;;;;20.80;45.80;;;;;;5072715;28;20323;-67
2022/12/22 16:32:12;;;;;;;;;;;20.80;45.90;;;;;;5072429;28;19990;-67
2022/12/22 16:34:37;;;;;;;;;;;20.80;45.90;;;;;;5072952;28;20118;-67
2022/12/22 16:37:03;;;;;;;;;;;20.70;45.90;;;;;;5072395;28;20149;-67
2022/12/22 16:39:28;;;;;;;;;;;20.70;46.00;;;;;;5071395;28;20347;-67
2022/12/22 16:41:54;;;;;;;;;;;20.70;46.00;;;;;;5071109;28;19928;-67
2022/12/22 16:44:21;;;;;;;;;;;20.70;46.00;;;;;;5069512;28;19928;-71
2022/12/22 16:46:46;;;;;;;;;;;20.60;46.00;;;;;;5071333;28;19922;-67
2022/12/22 16:49:14;;;;;;;;;;;20.60;46.10;;;;;;5071904;28;19943;-67
2022/12/22 16:51:44;;;;;;;;;;;20.50;46.10;;;;;;5070775;28;19928;-67
2022/12/22 16:54:12;;;;;;;;;;;20.50;46.20;;;;;;5072830;28;20300;-67
2022/12/22 16:56:40;;;;;;;;;;;20.40;46.20;;;;;;5071272;28;19928;-67
2022/12/22 16:59:06;;;;;;;;;;;20.40;46.30;;;;;;5070997;28;19946;-67
2022/12/22 17:04:15;;;;;;;;;;;20.30;46.40;;;;;;5108072;27;19920;-67
2022/12/22 17:06:41;;;;;;;;;;;20.30;46.40;;;;;;5088888;28;20420;-67
2022/12/22 17:09:11;;;;;;;;;;;20.30;46.50;;;;;;5090379;28;19928;-67
2022/12/22 17:11:37;;;;;;;;;;;20.30;46.60;;;;;;5090596;28;20007;-67
2022/12/22 17:14:05;;;;;;;;;;;20.30;46.50;;;;;;5090213;28;19970;-67
2022/12/22 17:16:31;;;;;;;;;;;20.20;46.50;;;;;;5107297;28;19920;-67
2022/12/22 17:18:56;;;;;;;;;;;20.20;46.50;;;;;;5090169;28;20006;-67
2022/12/22 17:21:22;;;;;;;;;;;20.20;46.50;;;;;;5089729;28;19978;-66
2022/12/22 17:23:51;;;;;;;;;;;20.20;46.60;;;;;;5089921;28;19967;-66
2022/12/22 17:26:18;;;;;;;;;;;20.20;46.60;;;;;;5089751;28;19930;-67
2022/12/22 17:28:44;;;;;;;;;;;20.20;46.60;;;;;;5108279;28;19946;-67
2022/12/22 17:31:14;;;;;;;;;;;20.10;46.50;;;;;;5108220;28;19988;-67
2022/12/22 17:33:39;;;;;;;;;;;20.10;46.50;;;;;;5106857;28;19955;-67
2022/12/22 17:36:05;;;;;;;;;;;20.10;46.60;;;;;;5090448;28;19974;-67
2022/12/22 17:38:31;;;;;;;;;;;20.10;46.60;;;;;;5107913;28;19920;-67
2022/12/22 17:40:56;;;;;;;;;;;20.10;46.70;;;;;;5107984;28;20394;-67
2022/12/22 17:43:22;;;;;;;;;;;20.00;46.60;;;;;;5089475;28;19982;-67
2022/12/22 17:45:47;;;;;;;;;;;20.10;46.70;;;;;;5089561;28;19920;-67
2022/12/22 17:48:14;;;;;;;;;;;20.00;46.70;;;;;;5089842;28;19927;-67
2022/12/22 17:50:40;;;;;;;;;;;20.00;46.80;;;;;;5089751;28;19920;-67
2022/12/22 17:53:10;;;;;;;;;;;19.90;46.80;;;;;;5108307;28;19920;-67
2022/12/22 17:55:35;;;;;;;;;;;19.90;46.80;;;;;;5089611;28;20002;-67
2022/12/22 17:58:01;;;;;;;;;;;19.90;46.90;;;;;;5107443;28;20049;-67
2022/12/22 18:00:28;;;;;;;;;;;19.80;46.90;;;;;;5107231;28;20446;-68
2022/12/22 18:02:53;;;;;;;;;;;19.80;46.90;;;;;;5088741;28;19949;-67
2022/12/22 18:05:20;;;;;;;;;;;19.70;47.10;;;;;;5089288;28;19920;-67
2022/12/22 18:07:46;;;;;;;;;;;19.70;47.30;;;;;;5107435;28;19946;-67
2022/12/22 18:10:16;;;;;;;;;;;19.60;47.30;;;;;;5107533;28;19955;-67
2022/12/22 18:12:43;;;;;;;;;;;19.50;47.50;;;;;;5107398;28;20332;-72
2022/12/22 18:15:13;;;;;;;;;;;19.50;47.70;;;;;;5077753;28;19959;-67
2022/12/22 18:17:39;;;;;;;;;;;19.40;47.80;;;;;;5092877;28;20335;-67
2022/12/22 18:20:05;;;;;;;;;;;19.30;47.80;;;;;;5075344;28;19920;-67
2022/12/22 18:22:31;;;;;;;;;;;19.30;48.00;;;;;;5092299;28;19930;-67
2022/12/22 18:24:57;;;;;;;;;;;19.20;48.00;;;;;;5058755;28;19920;-67
2022/12/22 18:27:22;;;;;;;;;;;19.20;48.20;;;;;;5075569;28;19927;-67
2022/12/22 18:29:48;;;;;;;;;;;19.10;48.30;;;;;;5093462;28;19964;-67
2022/12/22 18:32:14;;;;;;;;;;;19.10;48.40;;;;;;5093543;28;19934;-67
2022/12/22 18:34:40;;;;;;;;;;;19.00;48.50;;;;;;5075229;28;19931;-67
2022/12/22 18:37:11;;;;;;;;;;;19.00;48.60;;;;;;5093653;28;19921;-67
2022/12/22 18:39:36;;;;;;;;;;;18.90;48.70;;;;;;5075086;28;19920;-67
2022/12/22 18:42:02;;;;;;;;;;;18.90;48.80;;;;;;5092877;28;19920;-67
2022/12/22 18:44:28;;;;;;;;;;;18.90;48.80;;;;;;5093507;28;19927;-67
2022/12/22 18:46:54;;;;;;;;;;;18.90;48.90;;;;;;5074891;28;20014;-67
2022/12/22 18:49:19;;;;;;;;;;;18.90;48.90;;;;;;5093291;28;19920;-67
2022/12/22 18:51:45;;;;;;;;;;;18.80;49.00;;;;;;5075337;28;20376;-67
2022/12/22 18:54:19;;;;;;;;;;;18.80;48.90;;;;;;5093290;28;20011;-67
2022/12/22 18:56:45;;;;;;;;;;;18.80;48.90;;;;;;5092083;28;19927;-72
2022/12/22 18:59:19;;;;;;;;;;;18.80;48.90;;;;;;5075010;28;19920;-67
2022/12/22 19:01:45;;;;;;;;;;;18.80;48.90;;;;;;5074227;28;19920;-67
2022/12/22 19:04:11;;;;;;;;;;;18.80;49.00;;;;;;5092765;28;19931;-67